Time;durP1;ratioP1;P1;durP2;ratioP2;P2;SDS_P1;SDS_P2;PMS_P1;PMS_P2;Temp;Humidity;BMP_temperature;BMP_pressure;BME280_temperature;BME280_humidity;BME280_pressure;Samples;Min_cycle;Max_cycle;Signal;HPM_P1;HPM_P2
2022/04/30 00:01:49;;;;;;;7.72;4.25;;;;;;;7.05;98.21;102893.34;5062144;28;20030;-83
2022/04/30 00:04:14;;;;;;;16.75;5.00;;;;;;;7.01;98.02;102888.28;5042679;28;20036;-82
2022/04/30 00:06:42;;;;;;;10.75;4.65;;;;;;;6.99;99.24;102885.75;5058486;28;20047;-83
2022/04/30 00:09:07;;;;;;;10.43;4.35;;;;;;;6.92;99.07;102879.06;5042781;28;20177;-83
2022/04/30 00:11:32;;;;;;;8.88;4.38;;;;;;;6.88;98.85;102872.22;5041605;28;20028;-84
2022/04/30 00:13:58;;;;;;;6.63;4.40;;;;;;;6.86;99.02;102874.97;5042478;28;20032;-83
2022/04/30 00:16:23;;;;;;;6.95;4.10;;;;;;;6.85;99.43;102881.19;5054797;28;20024;-84
2022/04/30 00:18:49;;;;;;;7.45;4.07;;;;;;;6.80;100.00;102874.44;5039960;28;20298;-83
2022/04/30 00:21:14;;;;;;;8.88;4.07;;;;;;;6.79;100.00;102881.56;5021667;28;20503;-83
2022/04/30 00:23:39;;;;;;;9.40;4.00;;;;;;;6.76;100.00;102876.41;5040162;28;20021;-84
2022/04/30 00:26:05;;;;;;;10.15;4.70;;;;;;;6.71;100.00;102881.97;5039435;28;20274;-83
2022/04/30 00:28:30;;;;;;;8.30;3.97;;;;;;;6.69;100.00;102881.22;5039874;28;20037;-83
2022/04/30 00:30:56;;;;;;;7.68;4.13;;;;;;;6.68;100.00;102878.63;5038314;28;20031;-83
2022/04/30 00:33:22;;;;;;;12.35;3.95;;;;;;;6.58;100.00;102869.47;5040014;28;20123;-83
2022/04/30 00:35:48;;;;;;;8.75;4.20;;;;;;;6.54;100.00;102871.44;5038414;28;20423;-82
2022/04/30 00:38:15;;;;;;;6.78;4.00;;;;;;;6.52;100.00;102870.69;5040227;28;20067;-83
2022/04/30 00:40:42;;;;;;;8.48;4.18;;;;;;;6.43;100.00;102860.56;5039581;28;20472;-83
2022/04/30 00:43:07;;;;;;;7.70;4.20;;;;;;;6.44;100.00;102857.81;5039249;28;20017;-83
2022/04/30 00:45:32;;;;;;;7.03;3.72;;;;;;;6.42;100.00;102864.16;5038047;28;20384;-83
2022/04/30 00:47:58;;;;;;;10.70;4.60;;;;;;;6.34;100.00;102862.75;5039850;28;20025;-83
2022/04/30 00:50:28;;;;;;;7.05;3.65;;;;;;;6.30;100.00;102866.53;5038630;28;20024;-83
2022/04/30 00:52:56;;;;;;;15.00;4.13;;;;;;;6.28;100.00;102868.44;5038544;28;20061;-83
2022/04/30 00:55:22;;;;;;;8.85;4.28;;;;;;;6.26;100.00;102865.00;5038566;28;20462;-83
2022/04/30 00:57:52;;;;;;;7.30;4.10;;;;;;;6.23;100.00;102869.59;5021510;28;20028;-83
2022/04/30 01:00:17;;;;;;;5.95;4.00;;;;;;;6.24;100.00;102866.00;5038901;28;20029;-82
2022/04/30 01:02:43;;;;;;;9.07;4.55;;;;;;;6.16;100.00;102853.16;5040187;28;20037;-82
2022/04/30 01:05:10;;;;;;;13.73;4.57;;;;;;;6.13;100.00;102854.19;5039726;28;20361;-83
2022/04/30 01:07:36;;;;;;;9.82;4.55;;;;;;;6.11;100.00;102849.88;5038117;28;20090;-83
2022/04/30 01:10:02;;;;;;;10.27;4.15;;;;;;;6.06;100.00;102843.97;5036799;28;20451;-82
2022/04/30 01:12:28;;;;;;;11.50;4.53;;;;;;;6.06;100.00;102849.28;5038831;28;20084;-82
2022/04/30 01:14:55;;;;;;;9.27;4.38;;;;;;;6.04;100.00;102853.81;5039005;28;20036;-83
2022/04/30 01:17:21;;;;;;;8.38;4.30;;;;;;;6.00;100.00;102849.63;5038551;28;20035;-84
2022/04/30 01:19:47;;;;;;;11.95;4.50;;;;;;;6.04;100.00;102845.84;5039273;28;20048;-84
2022/04/30 01:22:24;;;;;;;11.20;4.15;;;;;;;6.03;100.00;102842.34;5038133;28;20017;-84
2022/04/30 01:24:54;;;;;;;15.20;4.57;;;;;;;6.04;100.00;102851.16;5039232;28;20487;-84
2022/04/30 01:27:22;;;;;;;9.38;4.07;;;;;;;6.04;100.00;102845.84;5038729;28;20432;-84
2022/04/30 01:29:47;;;;;;;12.35;4.65;;;;;;;5.99;100.00;102848.75;5039079;28;20028;-83
2022/04/30 01:37:40;;;;;;;8.02;4.68;;;;;;;5.90;100.00;102844.75;5055472;28;20040;-83
2022/04/30 01:40:08;;;;;;;12.38;4.65;;;;;;;5.83;100.00;102840.72;5054091;28;20021;-84
2022/04/30 01:42:38;;;;;;;12.63;4.80;;;;;;;5.72;100.00;102827.16;5055185;28;20045;-84
2022/04/30 01:45:05;;;;;;;9.35;4.80;;;;;;;5.68;100.00;102838.88;5041628;28;20020;-84
2022/04/30 01:47:35;;;;;;;9.00;4.70;;;;;;;5.63;100.00;102840.91;5039167;28;20025;-84
2022/04/30 01:50:00;;;;;;;9.38;4.47;;;;;;;5.54;100.00;102835.16;5038646;28;20029;-83
2022/04/30 01:52:26;;;;;;;8.15;5.05;;;;;;;5.49;100.00;102831.03;5035539;28;20252;-83
2022/04/30 01:54:51;;;;;;;9.00;4.75;;;;;;;5.47;100.00;102835.56;5038142;28;20215;-84
2022/04/30 01:57:23;;;;;;;7.85;4.88;;;;;;;5.48;100.00;102835.47;5038611;28;20112;-83
2022/04/30 01:59:48;;;;;;;;;;;;;;;5.50;100.00;102830.06;5039118;28;20497;-83
2022/04/30 02:02:14;;;;;;;8.73;4.63;;;;;;;5.38;100.00;102832.44;5039163;28;20047;-83
2022/04/30 02:04:40;;;;;;;11.23;5.05;;;;;;;5.33;100.00;102825.63;5036935;28;20404;-83
2022/04/30 02:07:06;;;;;;;8.68;4.80;;;;;;;5.25;100.00;102818.09;5037755;28;20503;-84
2022/04/30 02:09:32;;;;;;;12.43;5.07;;;;;;;5.26;100.00;102819.81;5037179;28;20052;-84
2022/04/30 02:11:59;;;;;;;11.07;5.28;;;;;;;5.26;100.00;102806.56;5035954;28;20036;-84
2022/04/30 02:14:30;;;;;;;9.27;5.15;;;;;;;5.31;100.00;102811.63;5019667;28;20036;-83
2022/04/30 02:16:57;;;;;;;10.30;5.20;;;;;;;5.30;100.00;102817.88;5047309;28;20028;-83
2022/04/30 02:19:27;;;;;;;10.32;5.25;;;;;;;5.28;100.00;102817.06;5058490;28;20085;-84
2022/04/30 02:21:58;;;;;;;11.20;5.32;;;;;;;5.28;100.00;102817.06;5057101;28;20021;-83
2022/04/30 02:24:27;;;;;;;13.77;5.18;;;;;;;5.17;100.00;102815.81;5057689;28;20479;-84
2022/04/30 02:26:52;;;;;;;10.70;5.30;;;;;;;5.10;100.00;102808.28;5057110;28;20589;-84
2022/04/30 02:29:17;;;;;;;11.00;5.32;;;;;;;5.06;100.00;102812.88;5058372;28;20035;-83
2022/04/30 02:31:43;;;;;;;11.38;5.40;;;;;;;5.06;100.00;102815.50;5056912;28;20028;-83
2022/04/30 02:34:08;;;;;;;13.13;5.72;;;;;;;5.06;100.00;102810.22;5058362;28;20100;-83
2022/04/30 02:36:34;;;;;;;14.77;5.53;;;;;;;5.07;100.00;102803.13;5057055;28;20077;-83
2022/04/30 02:39:00;;;;;;;13.57;5.72;;;;;;;5.08;100.00;102804.84;5057868;28;20040;-84
2022/04/30 02:41:26;;;;;;;9.55;5.47;;;;;;;5.16;100.00;102802.66;5038798;28;20363;-83
2022/04/30 02:43:52;;;;;;;14.18;6.47;;;;;;;5.15;100.00;102801.78;5058147;28;20017;-83
2022/04/30 02:46:20;;;;;;;11.80;5.90;;;;;;;5.14;100.00;102802.75;5057916;28;20430;-84
2022/04/30 02:48:46;;;;;;;13.85;6.30;;;;;;;5.14;100.00;102805.41;5058086;28;20118;-84
2022/04/30 02:51:12;;;;;;;11.48;6.00;;;;;;;5.15;100.00;102799.16;5038663;28;20077;-84
2022/04/30 02:53:38;;;;;;;10.73;5.97;;;;;;;5.12;100.00;102799.28;5056965;28;20332;-83
2022/04/30 02:56:04;;;;;;;12.10;6.15;;;;;;;5.08;100.00;102795.09;5057367;28;20025;-83
2022/04/30 03:01:14;;;;;;;13.10;6.43;;;;;;;5.02;100.00;102798.03;5058658;28;20526;-83
2022/04/30 03:03:40;;;;;;;12.38;6.38;;;;;;;5.04;100.00;102798.81;5057407;28;20044;-83
2022/04/30 03:06:07;;;;;;;12.73;5.95;;;;;;;5.05;100.00;102798.75;5056300;28;20591;-83
2022/04/30 03:08:32;;;;;;;18.38;6.55;;;;;;;5.02;100.00;102798.03;5057611;28;20060;-83
2022/04/30 03:11:00;;;;;;;13.23;6.93;;;;;;;5.05;100.00;102792.59;5056987;28;20024;-84
2022/04/30 03:13:26;;;;;;;14.10;6.57;;;;;;;5.01;100.00;102785.75;5057403;28;20049;-84
2022/04/30 03:15:56;;;;;;;14.35;6.70;;;;;;;5.07;100.00;102798.66;5057018;28;20116;-83
2022/04/30 03:23:38;;;;;;;13.63;7.28;;;;;;;4.96;100.00;102785.97;5035979;28;20400;-83
2022/04/30 03:26:05;;;;;;;14.52;7.63;;;;;;;4.92;100.00;102788.84;5034006;28;20119;-83
2022/04/30 03:28:30;;;;;;;20.95;7.35;;;;;;;4.90;100.00;102788.91;5040021;28;20025;-82
2022/04/30 03:30:56;;;;;;;17.45;7.13;;;;;;;4.85;100.00;102778.59;5041091;28;20706;-82
2022/04/30 03:33:21;;;;;;;16.65;7.70;;;;;;;4.82;100.00;102784.03;5040964;28;20037;-83
2022/04/30 03:35:46;;;;;;;22.88;7.55;;;;;;;4.82;100.00;102780.50;5039596;28;20025;-82
2022/04/30 03:38:13;;;;;;;15.10;7.53;;;;;;;4.77;100.00;102777.22;5041176;28;20033;-82
2022/04/30 03:40:39;;;;;;;11.85;7.05;;;;;;;4.76;100.00;102781.66;5039488;28;20033;-82
2022/04/30 03:43:05;;;;;;;11.43;7.22;;;;;;;4.65;100.00;102776.91;5041185;28;20381;-83
2022/04/30 03:45:30;;;;;;;18.98;7.07;;;;;;;4.59;100.00;102779.00;5040096;28;20057;-83
2022/04/30 03:47:55;;;;;;;13.70;7.13;;;;;;;4.53;100.00;102771.34;5041191;28;20025;-83
2022/04/30 03:50:20;;;;;;;14.00;7.13;;;;;;;4.50;100.00;102775.00;5039034;28;20107;-83
2022/04/30 03:52:46;;;;;;;15.27;6.70;;;;;;;4.47;100.00;102776.00;5056061;28;20103;-82
2022/04/30 03:55:14;;;;;;;17.30;7.10;;;;;;;4.45;100.00;102771.72;5060085;28;20345;-83
2022/04/30 03:57:39;;;;;;;15.23;7.47;;;;;;;4.45;100.00;102777.88;5060545;28;20016;-82
2022/04/30 04:00:06;;;;;;;14.38;7.47;;;;;;;4.39;100.00;102764.06;5060718;28;20356;-82
2022/04/30 04:02:33;;;;;;;14.00;7.50;;;;;;;4.41;100.00;102767.50;5060103;28;20104;-82
2022/04/30 04:04:58;;;;;;;15.50;7.93;;;;;;;4.36;100.00;102767.75;5059944;28;20036;-82
2022/04/30 04:07:24;;;;;;;18.42;7.88;;;;;;;4.38;100.00;102770.28;5058639;28;20040;-83
2022/04/30 04:09:49;;;;;;;16.70;8.20;;;;;;;4.39;100.00;102769.38;5037902;28;20379;-83
2022/04/30 04:12:15;;;;;;;18.15;8.50;;;;;;;4.44;100.00;102772.66;5039620;28;20070;-83
2022/04/30 04:17:39;;;;;;;15.35;7.70;;;;;;;4.46;100.00;102770.78;5039627;28;20939;-83
2022/04/30 04:20:09;;;;;;;15.48;8.43;;;;;;;4.50;100.00;102775.00;5040126;28;20079;-82
2022/04/30 04:22:35;;;;;;;16.38;8.20;;;;;;;4.44;100.00;102775.28;5040620;28;20085;-82
2022/04/30 04:27:46;;;;;;;14.55;7.95;;;;;;;4.45;100.00;102771.72;5043295;28;20775;-81
2022/04/30 04:30:11;;;;;;;17.58;8.98;;;;;;;4.47;100.00;102777.78;5042324;28;20438;-83
2022/04/30 04:32:37;;;;;;;26.23;8.10;;;;;;;4.49;100.00;102778.56;5045120;28;20027;-83
2022/04/30 04:35:02;;;;;;;17.52;8.90;;;;;;;4.48;100.00;102774.19;5059728;28;20029;-83
2022/04/30 04:37:28;;;;;;;20.60;8.45;;;;;;;4.44;100.00;102784.06;5055723;28;20013;-83
2022/04/30 04:39:55;;;;;;;15.88;8.90;;;;;;;4.43;100.00;102779.75;5055083;28;20291;-83
2022/04/30 04:42:20;;;;;;;16.17;8.40;;;;;;;4.42;100.00;102778.00;5027969;28;20069;-83
2022/04/30 04:44:46;;;;;;;21.67;9.60;;;;;;;4.43;100.00;102778.84;5020939;28;20025;-84
2022/04/30 04:47:12;;;;;;;18.67;9.25;;;;;;;4.44;100.00;102786.72;5021065;28;20088;-84
2022/04/30 04:49:38;;;;;;;15.70;9.18;;;;;;;4.47;100.00;102791.03;5020477;28;20218;-84
2022/04/30 04:52:03;;;;;;;20.23;10.15;;;;;;;4.46;100.00;102786.66;5018755;28;20448;-84
2022/04/30 04:54:29;;;;;;;18.02;9.20;;;;;;;4.53;100.00;102796.03;5019286;28;20033;-83
2022/04/30 04:56:55;;;;;;;20.25;9.23;;;;;;;4.59;100.00;102797.53;5020071;28;20026;-83
2022/04/30 04:59:20;;;;;;;22.00;9.45;;;;;;;4.62;100.00;102792.94;5020537;28;20544;-83
2022/04/30 05:01:48;;;;;;;16.85;8.23;;;;;;;4.65;100.00;102800.72;5020375;28;20468;-84
2022/04/30 05:04:13;;;;;;;17.80;8.73;;;;;;;4.71;100.00;102807.50;5020404;28;20451;-83
2022/04/30 05:06:39;;;;;;;20.83;9.02;;;;;;;4.73;100.00;102805.63;5017013;28;20116;-83
2022/04/30 05:09:04;;;;;;;17.13;8.65;;;;;;;4.74;100.00;102822.41;5028149;28;20531;-83
2022/04/30 05:11:29;;;;;;;19.83;8.70;;;;;;;4.75;100.00;102818.78;5039674;28;20032;-83
2022/04/30 05:13:55;;;;;;;15.77;8.48;;;;;;;4.73;100.00;102812.72;5039995;28;20032;-83
2022/04/30 05:16:20;;;;;;;19.05;8.18;;;;;;;4.77;100.00;102822.22;5041387;28;20313;-83
2022/04/30 05:18:46;;;;;;;15.55;8.48;;;;;;;4.80;100.00;102817.66;5059319;28;20039;-83
2022/04/30 05:21:11;;;;;;;16.63;9.13;;;;;;;4.80;100.00;102815.00;5058254;28;20024;-83
2022/04/30 05:23:37;;;;;;;17.50;8.63;;;;;;;4.87;100.00;102812.91;5040610;28;20118;-83
2022/04/30 05:26:03;;;;;;;13.88;8.57;;;;;;;4.96;100.00;102823.06;5040710;28;20490;-83
2022/04/30 05:28:28;;;;;;;16.73;9.02;;;;;;;5.00;100.00;102806.06;5059283;28;20036;-83
2022/04/30 05:30:53;;;;;;;18.05;9.10;;;;;;;5.01;100.00;102809.59;5058244;28;20407;-83
2022/04/30 05:33:19;;;;;;;18.05;8.82;;;;;;;5.02;100.00;102808.63;5059070;28;20024;-83
2022/04/30 05:35:44;;;;;;;19.10;8.68;;;;;;;5.10;100.00;102817.06;5039254;28;20016;-83
2022/04/30 05:38:10;;;;;;;21.02;9.15;;;;;;;5.13;100.00;102810.78;5040091;28;20414;-83
2022/04/30 05:40:36;;;;;;;18.05;8.75;;;;;;;5.19;100.00;102815.75;5039453;28;20059;-83
2022/04/30 05:43:02;;;;;;;20.88;9.23;;;;;;;5.26;100.00;102816.28;5058962;28;20537;-83
2022/04/30 05:45:28;;;;;;;20.60;9.93;;;;;;;5.31;100.00;102811.63;5056702;28;20101;-83
2022/04/30 05:47:53;;;;;;;16.88;8.98;;;;;;;5.35;100.00;102808.75;5058753;28;20028;-83
2022/04/30 05:50:18;;;;;;;16.25;9.52;;;;;;;5.45;100.00;102816.19;5056506;28;20023;-83
2022/04/30 05:52:44;;;;;;;24.08;9.63;;;;;;;5.46;100.00;102823.22;5057944;28;20075;-83
2022/04/30 05:55:09;;;;;;;19.85;8.68;;;;;;;5.54;100.00;102819.25;5057906;28;20036;-83
2022/04/30 05:57:34;;;;;;;18.85;9.45;;;;;;;5.59;100.00;102821.66;5058909;28;20028;-83
2022/04/30 06:00:00;;;;;;;18.27;9.73;;;;;;;5.63;100.00;102817.91;5057398;28;20032;-83
2022/04/30 06:02:25;;;;;;;16.23;9.07;;;;;;;5.70;100.00;102821.97;5058981;28;20380;-83
2022/04/30 06:04:51;;;;;;;15.45;9.05;;;;;;;5.82;100.00;102820.44;5058205;28;20434;-83
2022/04/30 06:07:18;;;;;;;18.42;8.60;;;;;;;5.93;100.00;102820.72;5040274;28;20135;-84
2022/04/30 06:09:43;;;;;;;19.55;9.18;;;;;;;5.99;100.00;102822.22;5038585;28;20053;-83
2022/04/30 06:12:09;;;;;;;16.55;8.38;;;;;;;6.13;100.00;102821.50;5039448;28;20036;-83
2022/04/30 06:14:34;;;;;;;17.88;8.40;;;;;;;6.20;100.00;102830.84;5038848;28;20025;-83
2022/04/30 06:17:00;;;;;;;17.25;8.85;;;;;;;6.27;100.00;102829.56;5057883;28;20051;-83
2022/04/30 06:19:26;;;;;;;21.02;9.23;;;;;;;6.35;100.00;102831.81;5079113;28;20471;-83
2022/04/30 06:21:51;;;;;;;18.02;9.13;;;;;;;6.41;100.00;102827.94;5078778;28;20020;-83
2022/04/30 06:24:17;;;;;;;15.82;8.80;;;;;;;6.45;100.00;102824.16;5079095;28;20027;-84
2022/04/30 06:26:44;;;;;;;17.20;8.02;;;;;;;6.54;100.00;102831.63;5079352;28;20020;-83
2022/04/30 06:29:10;;;;;;;15.80;8.10;;;;;;;6.65;100.00;102838.97;5080264;28;20023;-83
2022/04/30 06:31:36;;;;;;;23.88;8.88;;;;;;;6.75;100.00;102826.03;5079671;28;20500;-83
2022/04/30 06:34:02;;;;;;;16.15;8.30;;;;;;;6.86;100.00;102832.47;5080023;28;20150;-84
2022/04/30 06:36:28;;;;;;;19.70;7.75;;;;;;;6.94;100.00;102832.00;5078076;28;20029;-83
2022/04/30 06:38:53;;;;;;;13.75;7.60;;;;;;;7.03;100.00;102834.16;5079665;28;20127;-85
2022/04/30 06:41:22;;;;;;;21.08;7.90;;;;;;;7.12;100.00;102832.75;5079984;28;20084;-84
2022/04/30 06:43:51;;;;;;;12.50;7.47;;;;;;;7.22;100.00;102833.91;5061744;28;20024;-84
2022/04/30 06:46:17;;;;;;;23.77;8.75;;;;;;;7.25;100.00;102833.75;5061070;28;20051;-84
2022/04/30 06:48:44;;;;;;;17.65;7.85;;;;;;;7.32;100.00;102823.59;5079615;28;20030;-85
2022/04/30 06:51:10;;;;;;;19.52;7.18;;;;;;;7.45;100.00;102824.59;5071552;28;20221;-84
2022/04/30 06:59:10;;;;;;;24.15;7.68;;;;;;;7.77;100.00;102826.25;5039477;28;20318;-84
2022/04/30 07:01:53;;;;;;;10.25;6.90;;;;;;;7.81;100.00;102819.81;5040933;28;20275;-85
2022/04/30 07:04:19;;;;;;;19.30;7.00;;;;;;;7.96;100.00;102825.97;5042902;28;20119;-85
2022/04/30 07:06:46;;;;;;;13.05;6.53;;;;;;;8.08;100.00;102829.66;5042611;28;20067;-85
2022/04/30 07:09:13;;;;;;;12.00;6.93;;;;;;;8.20;100.00;102827.09;5043703;28;20113;-85
2022/04/30 07:11:39;;;;;;;13.55;6.38;;;;;;;8.33;100.00;102824.53;5044711;28;20472;-85
2022/04/30 07:14:04;;;;;;;14.75;6.70;;;;;;;8.45;100.00;102835.34;5044300;28;20055;-85
2022/04/30 07:16:30;;;;;;;15.27;6.47;;;;;;;8.51;100.00;102830.50;5052461;28;20028;-85
2022/04/30 07:18:55;;;;;;;15.25;6.60;;;;;;;8.61;100.00;102836.09;5063807;28;20025;-82
2022/04/30 07:21:20;;;;;;;9.98;6.05;;;;;;;8.72;100.00;102830.06;5064447;28;20119;-84
2022/04/30 07:23:46;;;;;;;14.05;6.13;;;;;;;8.80;100.00;102821.56;5062066;28;20051;-84
2022/04/30 07:26:11;;;;;;;14.00;6.53;;;;;;;8.98;100.00;102825.69;5064501;28;20434;-84
2022/04/30 07:28:37;;;;;;;14.82;5.55;;;;;;;9.19;100.00;102831.41;5064441;28;20107;-85
2022/04/30 07:31:03;;;;;;;9.68;5.30;;;;;;;9.40;100.00;102830.91;5063426;28;20059;-84
2022/04/30 07:33:29;;;;;;;11.60;5.80;;;;;;;9.59;100.00;102822.47;5063267;28;20028;-84
2022/04/30 07:35:55;;;;;;;14.98;5.95;;;;;;;9.58;96.39;102829.63;5061238;28;20509;-84
2022/04/30 07:38:21;;;;;;;9.65;5.40;;;;;;;9.61;97.41;102831.25;5060332;28;20028;-83
2022/04/30 07:40:46;;;;;;;17.00;5.60;;;;;;;9.67;96.92;102836.16;5062227;28;20024;-84
2022/04/30 07:43:11;;;;;;;14.07;5.63;;;;;;;9.76;96.74;102824.84;5062264;28;20055;-84
2022/04/30 07:45:37;;;;;;;10.10;5.03;;;;;;;9.86;96.09;102827.72;5043366;28;20173;-84
2022/04/30 07:48:03;;;;;;;9.90;5.57;;;;;;;10.07;96.99;102826.22;5062331;28;20054;-85
2022/04/30 07:50:35;;;;;;;11.48;5.05;;;;;;;10.30;94.72;102818.34;5060218;28;20033;-85
2022/04/30 07:53:00;;;;;;;8.60;4.97;;;;;;;10.67;94.37;102809.53;5061666;28;20455;-83
2022/04/30 07:55:28;;;;;;;13.07;5.20;;;;;;;11.07;92.18;102823.44;5061975;28;20124;-84
2022/04/30 07:57:53;;;;;;;11.73;5.75;;;;;;;11.14;87.90;102816.66;5061912;28;20134;-83
2022/04/30 08:00:19;;;;;;;10.10;5.10;;;;;;;11.24;88.78;102827.50;5043564;28;20016;-83
2022/04/30 08:02:44;;;;;;;9.35;5.20;;;;;;;11.26;88.70;102816.69;5060965;28;20028;-84
2022/04/30 08:05:09;;;;;;;16.00;5.25;;;;;;;11.20;86.84;102820.66;5041762;28;20045;-83
2022/04/30 08:07:35;;;;;;;11.27;5.28;;;;;;;10.97;87.99;102817.91;5061389;28;20054;-83
2022/04/30 08:10:00;;;;;;;10.50;5.07;;;;;;;11.01;86.86;102811.41;5059548;28;20128;-83
2022/04/30 08:12:25;;;;;;;13.20;5.10;;;;;;;10.91;86.71;102810.38;5059493;28;20021;-84
2022/04/30 08:14:51;;;;;;;10.82;5.03;;;;;;;11.08;91.05;102816.25;5061892;28;20031;-85
2022/04/30 08:17:16;;;;;;;12.43;5.47;;;;;;;11.34;84.32;102808.94;5049784;28;20041;-85
2022/04/30 08:19:41;;;;;;;11.95;5.18;;;;;;;11.66;87.45;102818.94;5040257;28;20024;-84
2022/04/30 08:22:07;;;;;;;13.80;5.80;;;;;;;11.60;85.10;102811.44;5041246;28;20021;-84
2022/04/30 08:24:32;;;;;;;12.95;5.70;;;;;;;11.22;86.88;102815.22;5040969;28;20029;-84
2022/04/30 08:26:59;;;;;;;13.50;5.63;;;;;;;10.98;89.52;102808.94;5023600;28;20033;-85
2022/04/30 08:29:28;;;;;;;14.13;6.13;;;;;;;10.78;90.32;102813.09;5040860;28;20061;-84
2022/04/30 08:31:53;;;;;;;10.93;5.43;;;;;;;10.65;89.95;102817.66;5041385;28;20071;-83
2022/04/30 08:34:18;;;;;;;12.88;6.00;;;;;;;10.58;90.88;102817.25;5039778;28;20472;-84
2022/04/30 08:36:45;;;;;;;10.07;5.55;;;;;;;10.42;89.89;102811.31;5040132;28;20044;-84
2022/04/30 08:39:10;;;;;;;10.48;5.55;;;;;;;10.33;90.99;102809.31;5040391;28;20314;-84
2022/04/30 08:41:35;;;;;;;12.90;5.38;;;;;;;10.42;91.14;102806.84;5041557;28;20075;-84
2022/04/30 08:44:01;;;;;;;9.18;5.72;;;;;;;10.53;89.54;102802.53;5041646;28;20032;-84
2022/04/30 08:46:26;;;;;;;10.00;5.53;;;;;;;10.64;87.78;102805.25;5039527;28;20032;-84
2022/04/30 08:48:52;;;;;;;11.93;5.30;;;;;;;10.75;88.12;102804.47;5040516;28;20391;-83
2022/04/30 08:51:17;;;;;;;12.25;5.35;;;;;;;10.92;87.10;102800.53;5037593;28;20499;-84
2022/04/30 08:53:43;;;;;;;9.60;5.38;;;;;;;11.19;86.54;102798.44;5023020;28;20025;-83
2022/04/30 08:56:10;;;;;;;12.93;5.50;;;;;;;11.33;81.63;102797.38;5040190;28;20025;-82
2022/04/30 08:58:35;;;;;;;15.98;4.85;;;;;;;11.22;81.16;102801.84;5040797;28;20033;-84
2022/04/30 09:01:03;;;;;;;15.95;5.47;;;;;;;11.32;82.19;102800.16;5022965;28;20324;-84
2022/04/30 09:03:33;;;;;;;15.27;4.90;;;;;;;11.57;82.10;102799.13;5040064;28;20357;-83
2022/04/30 09:06:00;;;;;;;16.33;5.30;;;;;;;11.51;78.88;102797.78;5039468;28;20017;-84
2022/04/30 09:08:25;;;;;;;21.50;5.28;;;;;;;11.63;80.45;102793.28;5040456;28;20117;-84
2022/04/30 09:10:51;;;;;;;7.53;4.82;;;;;;;11.71;77.95;102790.88;5022199;28;20017;-84
2022/04/30 09:13:18;;;;;;;11.48;4.95;;;;;;;11.77;79.12;102792.22;5040186;28;20175;-83
2022/04/30 09:15:47;;;;;;;8.88;4.47;;;;;;;11.86;78.47;102794.19;5040588;28;20436;-84
2022/04/30 09:18:14;;;;;;;9.70;4.97;;;;;;;11.98;78.48;102792.34;5040692;28;20061;-84
2022/04/30 09:20:51;;;;;;;13.18;5.20;;;;;;;11.99;77.47;102791.38;5037451;28;20036;-83
2022/04/30 09:23:27;;;;;;;11.68;4.90;;;;;;;11.89;76.11;102793.06;5022110;28;20436;-84
2022/04/30 09:25:55;;;;;;;7.97;4.72;;;;;;;11.81;76.36;102790.13;5040291;28;20353;-84
2022/04/30 09:28:29;;;;;;;6.82;4.28;;;;;;;11.81;76.58;102788.31;5022117;28;20333;-84
2022/04/30 09:31:09;;;;;;;7.95;4.60;;;;;;;11.80;74.83;102791.13;5040021;28;20052;-83
2022/04/30 09:33:36;;;;;;;12.75;4.82;;;;;;;11.73;74.79;102782.72;5039900;28;20082;-83
2022/04/30 09:38:52;;;;;;;7.88;4.40;;;;;;;11.79;74.04;102789.41;5039410;28;20131;-82
2022/04/30 09:41:26;;;;;;;9.80;4.22;;;;;;;11.97;72.14;102785.31;5039733;28;20028;-83
2022/04/30 09:44:08;;;;;;;7.35;4.35;;;;;;;12.27;73.24;102773.97;5038319;28;20032;-84
2022/04/30 09:46:38;;;;;;;9.32;4.60;;;;;;;12.59;73.24;102778.50;5040483;28;20454;-84
2022/04/30 09:54:36;;;;;;;9.60;5.57;;;;;;;12.98;71.91;102762.75;5039652;28;20059;-83
2022/04/30 09:57:01;;;;;;;9.45;5.65;;;;;;;13.18;70.62;102762.88;5040128;28;20090;-84
2022/04/30 09:59:29;;;;;;;10.63;5.72;;;;;;;13.28;68.86;102766.47;5038122;28;20399;-84
2022/04/30 10:01:55;;;;;;;9.60;5.40;;;;;;;13.32;69.29;102762.56;5038878;28;20472;-84
2022/04/30 10:04:21;;;;;;;11.85;4.95;;;;;;;13.38;71.09;102762.03;5020997;28;20035;-84
2022/04/30 10:06:49;;;;;;;9.18;5.13;;;;;;;13.59;69.69;102762.03;5021392;28;20029;-84
2022/04/30 10:09:28;;;;;;;8.30;4.88;;;;;;;13.78;67.31;102753.19;5040932;28;20061;-83
2022/04/30 10:11:56;;;;;;;11.95;4.97;;;;;;;13.76;63.74;102749.81;5043872;28;20051;-84
2022/04/30 10:14:33;;;;;;;14.90;4.85;;;;;;;13.74;65.05;102741.00;5045898;28;20039;-83
2022/04/30 10:17:13;;;;;;;16.98;5.18;;;;;;;13.58;65.20;102746.03;5055367;28;20028;-84
2022/04/30 10:20:51;;;;;;;10.35;4.80;;;;;;;13.82;64.14;102745.72;5058827;28;20024;-85
2022/04/30 10:22:53;;;;;;;10.35;4.38;;;;;;;13.71;61.45;102743.94;5044859;28;20025;-84
2022/04/30 10:25:33;;;;;;;7.90;4.40;;;;;;;13.93;63.59;102734.00;5058438;28;20025;-84
2022/04/30 10:28:02;;;;;;;8.57;4.35;;;;;;;14.23;63.63;102732.25;5059286;28;20456;-85
2022/04/30 10:30:28;;;;;;;6.30;4.00;;;;;;;14.46;61.10;102725.63;5059418;28;20028;-85
2022/04/30 10:33:06;;;;;;;8.00;4.10;;;;;;;14.58;60.65;102730.84;5061304;28;20107;-85
2022/04/30 10:35:33;;;;;;;9.82;3.88;;;;;;;14.29;55.75;102726.28;5057057;28;20027;-85
2022/04/30 10:38:12;;;;;;;5.20;3.38;;;;;;;14.08;57.11;102726.41;5063466;28;20032;-84
2022/04/30 10:40:49;;;;;;;11.02;4.20;;;;;;;13.87;57.57;102723.81;5044783;28;20081;-84
2022/04/30 10:43:35;;;;;;;5.80;3.70;;;;;;;13.93;56.59;102726.81;5045720;28;20452;-84
2022/04/30 10:46:03;;;;;;;7.63;3.67;;;;;;;14.24;55.36;102715.13;5063206;28;20107;-84
2022/04/30 10:48:29;;;;;;;7.00;3.75;;;;;;;14.39;55.41;102713.72;5044433;28;20063;-83
2022/04/30 10:51:12;;;;;;;6.05;4.00;;;;;;;14.57;57.91;102715.72;5061179;28;20128;-83
2022/04/30 10:53:42;;;;;;;10.00;4.35;;;;;;;14.47;54.16;102705.81;5042894;28;20028;-84
2022/04/30 10:56:09;;;;;;;8.00;4.17;;;;;;;14.31;52.70;102698.31;5024187;28;20033;-84
2022/04/30 10:58:38;;;;;;;8.93;4.43;;;;;;;14.17;53.83;102702.25;5043044;28;20132;-83
2022/04/30 11:01:14;;;;;;;6.28;4.05;;;;;;;14.24;59.36;102697.19;5042406;28;20115;-84
2022/04/30 11:03:48;;;;;;;9.00;5.35;;;;;;;14.47;54.46;102686.97;5023988;28;20048;-84
2022/04/30 11:06:22;;;;;;;6.85;4.15;;;;;;;14.89;57.82;102686.69;5024162;28;20021;-83
2022/04/30 11:09:05;;;;;;;10.02;4.22;;;;;;;15.30;49.54;102691.84;5043915;28;20522;-85
2022/04/30 11:11:32;;;;;;;6.40;3.95;;;;;;;15.26;48.89;102687.75;5041442;28;20033;-84
2022/04/30 11:14:08;;;;;;;7.47;3.28;;;;;;;15.48;47.09;102686.53;5042977;28;20057;-84
2022/04/30 11:16:35;;;;;;;6.32;3.63;;;;;;;15.71;46.42;102681.59;5043475;28;20021;-85
2022/04/30 11:19:10;;;;;;;4.95;3.55;;;;;;;16.06;48.70;102680.00;5043629;28;20052;-84
2022/04/30 11:21:38;;;;;;;5.43;3.70;;;;;;;16.16;45.53;102683.47;5042394;28;20349;-85
2022/04/30 11:24:05;;;;;;;6.60;3.42;;;;;;;16.52;49.02;102672.69;5042034;28;20506;-85
2022/04/30 11:26:35;;;;;;;8.57;3.70;;;;;;;16.91;46.60;102668.78;5044087;28;20032;-84
2022/04/30 11:29:01;;;;;;;9.18;3.90;;;;;;;16.65;41.65;102666.91;5047581;28;20020;-84
2022/04/30 11:31:26;;;;;;;7.10;3.80;;;;;;;16.65;43.89;102677.69;5043925;28;20111;-85
2022/04/30 11:33:51;;;;;;;8.25;3.80;;;;;;;16.58;41.34;102668.50;5041738;28;20056;-85
2022/04/30 11:36:18;;;;;;;7.85;4.55;;;;;;;16.85;50.48;102669.41;5042558;28;20029;-84
2022/04/30 11:38:51;;;;;;;8.43;5.13;;;;;;;16.25;50.34;102675.47;5044446;28;20512;-84
2022/04/30 11:41:16;;;;;;;11.35;5.15;;;;;;;15.39;52.00;102673.94;5051742;28;20150;-85
2022/04/30 11:43:41;;;;;;;13.50;5.28;;;;;;;14.92;56.00;102672.97;5062633;28;20131;-84
2022/04/30 11:46:07;;;;;;;9.45;5.80;;;;;;;14.72;57.56;102664.06;5062880;28;20028;-84
2022/04/30 11:48:39;;;;;;;8.82;5.15;;;;;;;14.36;58.56;102671.00;5061898;28;20025;-85
2022/04/30 11:51:09;;;;;;;15.48;5.82;;;;;;;14.12;60.21;102666.03;5044243;28;20044;-85
2022/04/30 11:53:36;;;;;;;11.65;5.85;;;;;;;13.96;60.94;102670.09;5063193;28;20062;-85